Terminal Aerodrome Forecast
Issued by NWS

Home | Current Version | Previous Version | Text Only | Print | Product List | Glossary On
Versions: 1 2 3 4 5 6 7 8 9 10 11 12 13 14 15 16
000
FTUS41 KBTV 040712 AAA
TAFMPV
TAF AMD
KMPV 040712Z 0407/0506 12007KT P6SM VCSH SCT009 BKN015 OVC020
      TEMPO 0407/0410 3SM -SHSN BR BKN008 OVC015
     FM041200 24010KT P6SM SCT025 BKN040 OVC080
      TEMPO 0412/0414 BKN025
     FM041600 27011G20KT P6SM FEW035 SCT100
     FM050000 29008KT P6SM FEW100 BKN180=

USA.gov is the U.S. government's official web portal to all federal, state and local government web resources and services.